createdAt,value
2019-02-03T00:00:53.504Z,0
2019-02-03T00:01:52.051Z,0
2019-02-03T00:02:50.656Z,0
2019-02-03T00:03:49.354Z,0
2019-02-03T00:04:47.908Z,0
2019-02-03T00:05:46.442Z,0
2019-02-03T00:06:45.009Z,0
2019-02-03T00:07:43.598Z,0
2019-02-03T00:08:42.223Z,0
2019-02-03T00:09:40.784Z,0
2019-02-03T00:10:39.354Z,0
2019-02-03T00:11:37.921Z,0
2019-02-03T00:12:36.490Z,0
2019-02-03T00:13:35.088Z,0
2019-02-03T00:14:33.704Z,0
2019-02-03T00:15:32.246Z,0
2019-02-03T00:16:30.966Z,0
2019-02-03T00:17:29.612Z,0
2019-02-03T00:18:28.146Z,0
2019-02-03T00:19:26.691Z,0
2019-02-03T00:20:25.455Z,0
2019-02-03T00:21:24.167Z,0
2019-02-03T00:22:22.710Z,0
2019-02-03T00:23:21.445Z,0
2019-02-03T00:24:20.005Z,0
2019-02-03T00:25:18.599Z,0
2019-02-03T00:26:17.900Z,0
2019-02-03T00:27:15.942Z,0
2019-02-03T00:28:14.453Z,0
2019-02-03T00:29:13.006Z,0
2019-02-03T00:30:11.570Z,0
2019-02-03T00:31:10.123Z,0
2019-02-03T00:32:08.653Z,0
2019-02-03T00:33:07.381Z,0
2019-02-03T00:34:05.896Z,0
2019-02-03T00:35:04.441Z,0
2019-02-03T00:36:03.105Z,0
2019-02-03T00:37:01.702Z,0
2019-02-03T00:38:00.295Z,0
2019-02-03T00:38:58.856Z,0
2019-02-03T00:39:57.294Z,0
2019-02-03T00:40:55.977Z,0
2019-02-03T00:41:54.520Z,0
2019-02-03T00:42:53.136Z,0
2019-02-03T00:43:51.689Z,0
2019-02-03T00:44:50.264Z,0
2019-02-03T00:45:48.780Z,0
2019-02-03T00:46:47.325Z,0
2019-02-03T00:47:45.852Z,0
2019-02-03T00:48:44.405Z,0
2019-02-03T00:49:42.959Z,0
2019-02-03T00:50:41.803Z,0
2019-02-03T00:51:40.351Z,0
2019-02-03T00:52:39.034Z,0
2019-02-03T00:53:37.741Z,0
2019-02-03T00:54:36.329Z,0
2019-02-03T00:55:34.884Z,0
2019-02-03T00:56:33.435Z,0
2019-02-03T00:57:32.469Z,0
2019-02-03T00:58:30.553Z,0
2019-02-03T00:59:29.119Z,0
2019-02-03T01:00:27.860Z,0
2019-02-03T01:01:26.394Z,0
2019-02-03T01:02:25.028Z,0
2019-02-03T01:03:26.388Z,0
2019-02-03T01:04:22.194Z,0
2019-02-03T01:05:20.756Z,0
2019-02-03T01:06:19.460Z,0
2019-02-03T01:07:27.069Z,0
2019-02-03T01:08:16.598Z,0
2019-02-03T01:09:15.231Z,0
2019-02-03T01:10:13.763Z,0
2019-02-03T01:11:12.331Z,0
2019-02-03T01:12:10.894Z,0
2019-02-03T01:13:09.491Z,0
2019-02-03T01:14:08.031Z,0
2019-02-03T01:15:06.557Z,0
2019-02-03T01:16:05.163Z,0
2019-02-03T01:17:03.755Z,0
2019-02-03T01:18:02.328Z,0
2019-02-03T01:19:00.960Z,0
2019-02-03T01:19:59.705Z,0
2019-02-03T01:20:58.240Z,0
2019-02-03T01:21:56.788Z,0
2019-02-03T01:22:55.352Z,0
2019-02-03T01:23:53.969Z,0
2019-02-03T01:24:52.519Z,0
2019-02-03T01:25:51.101Z,0
2019-02-03T01:26:49.905Z,0
2019-02-03T01:27:48.419Z,0
2019-02-03T01:28:47.063Z,0
2019-02-03T01:29:45.634Z,0
2019-02-03T01:30:44.190Z,0
2019-02-03T01:31:42.795Z,0
2019-02-03T01:32:41.382Z,0
2019-02-03T01:33:39.947Z,0
2019-02-03T01:34:38.508Z,0
2019-02-03T01:35:37.048Z,0
2019-02-03T01:36:35.585Z,0
2019-02-03T01:37:39.259Z,0
2019-02-03T01:38:32.718Z,0
2019-02-03T01:39:31.289Z,0
2019-02-03T01:40:30.047Z,0
2019-02-03T01:41:28.624Z,0
2019-02-03T01:42:27.373Z,0
2019-02-03T01:43:25.946Z,0
2019-02-03T01:44:24.510Z,0
2019-02-03T01:45:23.106Z,0
2019-02-03T01:46:21.777Z,0
2019-02-03T01:47:20.352Z,0
2019-02-03T01:48:18.939Z,0
2019-02-03T01:49:17.613Z,0
2019-02-03T01:50:16.217Z,0
2019-02-03T01:51:14.863Z,0
2019-02-03T01:52:13.549Z,0
2019-02-03T01:53:12.097Z,0
2019-02-03T01:54:10.652Z,0
2019-02-03T01:55:09.318Z,0
2019-02-03T01:56:08.006Z,0
2019-02-03T01:57:06.625Z,0
2019-02-03T01:58:05.139Z,0
2019-02-03T01:59:03.745Z,0
2019-02-03T02:00:02.427Z,0
2019-02-03T02:01:01.039Z,0
2019-02-03T02:01:59.800Z,0
2019-02-03T02:02:58.362Z,0
2019-02-03T02:03:56.941Z,0
2019-02-03T02:04:55.544Z,0
2019-02-03T02:05:54.085Z,0
2019-02-03T02:06:53.153Z,0
2019-02-03T02:07:52.169Z,0
2019-02-03T02:08:49.919Z,0
2019-02-03T02:09:48.470Z,0
2019-02-03T02:10:47.157Z,0
2019-02-03T02:11:45.857Z,0
2019-02-03T02:12:44.357Z,0
2019-02-03T02:13:42.908Z,0
2019-02-03T02:14:41.676Z,0
2019-02-03T02:15:40.239Z,0
2019-02-03T02:16:38.785Z,0
2019-02-03T02:17:37.339Z,0
2019-02-03T02:18:35.866Z,0
2019-02-03T02:19:34.409Z,0
2019-02-03T02:20:32.967Z,0
2019-02-03T02:21:31.800Z,0
2019-02-03T02:22:30.397Z,0
2019-02-03T02:23:29.012Z,0
2019-02-03T02:24:27.805Z,0
2019-02-03T02:25:26.365Z,0
2019-02-03T02:26:24.914Z,0
2019-02-03T02:27:23.473Z,0
2019-02-03T02:28:22.012Z,0
2019-02-03T02:29:20.561Z,0
2019-02-03T02:30:19.197Z,0
2019-02-03T02:31:17.981Z,0
2019-02-03T02:32:16.526Z,0
2019-02-03T02:33:15.165Z,0
2019-02-03T02:34:14.438Z,0
2019-02-03T02:35:13.109Z,0
2019-02-03T02:36:11.851Z,0
2019-02-03T02:37:10.409Z,0
2019-02-03T02:38:09.055Z,0
2019-02-03T02:39:07.617Z,0
2019-02-03T02:40:12.453Z,0
2019-02-03T02:41:04.725Z,0
2019-02-03T02:42:03.244Z,0
2019-02-03T02:43:01.785Z,0
2019-02-03T02:44:00.331Z,0
2019-02-03T02:44:58.931Z,0
2019-02-03T02:45:57.688Z,0
2019-02-03T02:46:56.248Z,0
2019-02-03T02:47:54.834Z,0
2019-02-03T02:48:53.626Z,0
2019-02-03T02:49:52.281Z,0
2019-02-03T02:50:50.881Z,0
2019-02-03T02:51:49.427Z,0
2019-02-03T02:52:48.139Z,0
2019-02-03T02:53:46.696Z,0
2019-02-03T02:54:45.466Z,0
2019-02-03T02:55:44.096Z,0
2019-02-03T02:56:42.649Z,0
2019-02-03T02:57:41.377Z,0
2019-02-03T02:58:39.933Z,0
2019-02-03T02:59:38.505Z,0
2019-02-03T03:00:37.042Z,0
2019-02-03T03:01:35.664Z,0
2019-02-03T03:02:34.199Z,0
2019-02-03T03:03:32.751Z,0
2019-02-03T03:04:31.419Z,0
2019-02-03T03:05:30.001Z,0
2019-02-03T03:06:28.793Z,0
2019-02-03T03:07:27.492Z,0
2019-02-03T03:08:26.066Z,0
2019-02-03T03:09:24.610Z,0
2019-02-03T03:10:23.140Z,0
2019-02-03T03:11:21.718Z,0
2019-02-03T03:12:20.265Z,0
2019-02-03T03:13:18.811Z,0
2019-02-03T03:14:17.413Z,0
2019-02-03T03:15:16.040Z,0
2019-02-03T03:16:14.596Z,0
2019-02-03T03:17:13.300Z,0
2019-02-03T03:18:11.895Z,0
2019-02-03T03:19:10.426Z,0
2019-02-03T03:20:08.996Z,0
2019-02-03T03:21:07.619Z,0
2019-02-03T03:22:06.171Z,0
2019-02-03T03:23:04.836Z,0
2019-02-03T03:24:03.399Z,0
2019-02-03T03:25:01.927Z,0
2019-02-03T03:26:00.460Z,0
2019-02-03T03:26:58.992Z,0
2019-02-03T03:27:57.548Z,0
2019-02-03T03:28:56.114Z,0
2019-02-03T03:29:54.682Z,0
2019-02-03T03:30:53.355Z,0
2019-02-03T03:31:51.953Z,0
2019-02-03T03:32:50.513Z,0
2019-02-03T03:33:49.143Z,0
2019-02-03T03:34:47.713Z,0
2019-02-03T03:35:46.265Z,0
2019-02-03T03:36:44.779Z,0
2019-02-03T03:37:43.483Z,0
2019-02-03T03:38:42.203Z,0
2019-02-03T03:39:40.750Z,0
2019-02-03T03:40:39.375Z,0
2019-02-03T03:41:37.989Z,0
2019-02-03T03:42:36.537Z,0
2019-02-03T03:43:35.183Z,0
2019-02-03T03:44:33.745Z,0
2019-02-03T03:45:32.300Z,0
2019-02-03T03:46:30.840Z,0
2019-02-03T03:47:29.441Z,0
2019-02-03T03:48:28.094Z,0
2019-02-03T03:49:26.639Z,0
2019-02-03T03:50:25.237Z,0
2019-02-03T03:51:23.798Z,0
2019-02-03T03:52:22.350Z,0
2019-02-03T03:53:20.898Z,0
2019-02-03T03:54:19.444Z,0
2019-02-03T03:55:18.004Z,0
2019-02-03T03:56:16.565Z,0
2019-02-03T03:57:15.164Z,0
2019-02-03T03:58:13.771Z,0
2019-02-03T03:59:12.299Z,0
2019-02-03T04:00:10.836Z,0
2019-02-03T04:01:09.570Z,0
2019-02-03T04:02:08.129Z,0
2019-02-03T04:03:06.686Z,0
2019-02-03T04:04:05.443Z,0
2019-02-03T04:05:03.993Z,0
2019-02-03T04:06:02.531Z,0
2019-02-03T04:07:01.103Z,0
2019-02-03T04:07:59.650Z,0
2019-02-03T04:08:58.214Z,0
2019-02-03T04:09:56.778Z,0
2019-02-03T04:10:55.440Z,0
2019-02-03T04:11:54.021Z,0
2019-02-03T04:12:52.574Z,0
2019-02-03T04:13:51.201Z,0
2019-02-03T04:14:49.742Z,0
2019-02-03T04:15:48.280Z,0
2019-02-03T04:16:46.843Z,0
2019-02-03T04:17:45.729Z,0
2019-02-03T04:18:44.250Z,0
2019-02-03T04:19:42.815Z,0
2019-02-03T04:20:41.377Z,0
2019-02-03T04:21:39.913Z,0
2019-02-03T04:22:38.440Z,0
2019-02-03T04:23:36.990Z,0
2019-02-03T04:24:35.647Z,0
2019-02-03T04:25:34.240Z,0
2019-02-03T04:26:32.812Z,0
2019-02-03T04:27:31.516Z,0
2019-02-03T04:28:30.093Z,0
2019-02-03T04:29:28.632Z,0
2019-02-03T04:30:27.407Z,0
2019-02-03T04:31:25.946Z,0
2019-02-03T04:32:24.501Z,0
2019-02-03T04:33:23.060Z,0
2019-02-03T04:34:21.645Z,0
2019-02-03T04:35:20.198Z,0
2019-02-03T04:36:18.741Z,0
2019-02-03T04:37:17.734Z,0
2019-02-03T04:38:16.326Z,0
2019-02-03T04:39:15.004Z,0
2019-02-03T04:40:13.572Z,0
2019-02-03T04:41:12.129Z,0
2019-02-03T04:42:10.673Z,0
2019-02-03T04:43:09.230Z,0
2019-02-03T04:44:07.769Z,0
2019-02-03T04:45:06.301Z,0
2019-02-03T04:46:04.846Z,0
2019-02-03T04:47:03.379Z,0
2019-02-03T04:48:01.991Z,0
2019-02-03T04:49:00.546Z,0
2019-02-03T04:49:59.086Z,0
2019-02-03T04:50:57.816Z,0
2019-02-03T04:51:56.343Z,0
2019-02-03T04:52:55.023Z,0
2019-02-03T04:53:53.771Z,0
2019-02-03T04:54:52.272Z,0
2019-02-03T04:55:50.884Z,0
2019-02-03T04:56:49.430Z,0
2019-02-03T04:57:48.070Z,0
2019-02-03T04:58:46.624Z,0
2019-02-03T04:59:45.188Z,0
2019-02-03T05:00:43.751Z,0
2019-02-03T05:01:42.291Z,0
2019-02-03T05:02:40.860Z,0
2019-02-03T05:03:39.417Z,0
2019-02-03T05:04:38.011Z,0
2019-02-03T05:05:36.573Z,0
2019-02-03T05:06:35.112Z,0
2019-02-03T05:07:33.735Z,0
2019-02-03T05:08:32.282Z,0
2019-02-03T05:09:30.847Z,0
2019-02-03T05:10:29.616Z,0
2019-02-03T05:11:28.175Z,0
2019-02-03T05:12:26.732Z,0
2019-02-03T05:13:25.280Z,0
2019-02-03T05:14:23.845Z,0
2019-02-03T05:15:22.405Z,0
2019-02-03T05:16:20.944Z,0
2019-02-03T05:17:19.703Z,0
2019-02-03T05:18:18.259Z,0
2019-02-03T05:19:16.875Z,0
2019-02-03T05:20:15.428Z,0
2019-02-03T05:21:14.041Z,0
2019-02-03T05:22:12.602Z,0
2019-02-03T05:23:11.325Z,0
2019-02-03T05:24:09.893Z,0
2019-02-03T05:25:08.450Z,0
2019-02-03T05:26:07.118Z,0
2019-02-03T05:27:05.573Z,0
2019-02-03T05:28:04.134Z,0
2019-02-03T05:29:02.678Z,0
2019-02-03T05:30:01.247Z,0
2019-02-03T05:31:00.030Z,0
2019-02-03T05:31:58.567Z,0
2019-02-03T05:32:57.227Z,0
2019-02-03T05:33:55.843Z,0
2019-02-03T05:34:54.398Z,0
2019-02-03T05:35:52.992Z,0
2019-02-03T05:36:51.592Z,0
2019-02-03T05:37:50.134Z,0
2019-02-03T05:38:48.769Z,0
2019-02-03T05:39:47.385Z,0
2019-02-03T05:40:46.142Z,0
2019-02-03T05:41:44.708Z,0
2019-02-03T05:42:43.298Z,0
2019-02-03T05:43:42.020Z,0
2019-02-03T05:44:40.538Z,0
2019-02-03T05:45:39.236Z,0
2019-02-03T05:46:37.794Z,0
2019-02-03T05:47:36.358Z,0
2019-02-03T05:48:34.918Z,0
2019-02-03T05:49:33.463Z,0
2019-02-03T05:50:32.026Z,0
2019-02-03T05:51:30.572Z,0
2019-02-03T05:52:29.102Z,0
2019-02-03T05:53:27.851Z,0
2019-02-03T05:54:26.432Z,0
2019-02-03T05:55:25.060Z,0
2019-02-03T05:56:23.859Z,0
2019-02-03T05:57:22.435Z,0
2019-02-03T05:58:20.966Z,0
2019-02-03T05:59:19.519Z,0
2019-02-03T06:00:18.064Z,0
2019-02-03T06:01:16.759Z,0
2019-02-03T06:02:15.411Z,0
2019-02-03T06:03:14.041Z,0
2019-02-03T06:04:12.592Z,0
2019-02-03T06:05:11.130Z,0
2019-02-03T06:06:09.825Z,0
2019-02-03T06:07:08.349Z,0
2019-02-03T06:08:06.881Z,0
2019-02-03T06:09:05.609Z,0
2019-02-03T06:10:04.168Z,0
2019-02-03T06:11:02.706Z,0
2019-02-03T06:12:01.254Z,0
2019-02-03T06:12:59.832Z,0
2019-02-03T06:13:58.381Z,0
2019-02-03T06:14:56.974Z,0
2019-02-03T06:15:55.781Z,0
2019-02-03T06:16:54.322Z,0
2019-02-03T06:17:52.880Z,0
2019-02-03T06:18:51.524Z,0
2019-02-03T06:19:50.165Z,0
2019-02-03T06:20:48.739Z,0
2019-02-03T06:21:47.350Z,0
2019-02-03T06:22:45.923Z,0
2019-02-03T06:23:44.470Z,0
2019-02-03T06:24:43.003Z,0
2019-02-03T06:25:41.546Z,0
2019-02-03T06:26:40.223Z,0
2019-02-03T06:27:38.870Z,0
2019-02-03T06:28:37.502Z,0
2019-02-03T06:29:36.057Z,0
2019-02-03T06:30:34.629Z,0
2019-02-03T06:31:33.340Z,0
2019-02-03T06:32:31.962Z,0
2019-02-03T06:33:30.525Z,0
2019-02-03T06:34:29.063Z,0
2019-02-03T06:35:27.603Z,0
2019-02-03T06:36:26.159Z,0
2019-02-03T06:37:24.716Z,0
2019-02-03T06:38:23.259Z,0
2019-02-03T06:39:21.789Z,0
2019-02-03T06:40:20.343Z,0
2019-02-03T06:41:18.915Z,0
2019-02-03T06:42:17.686Z,0
2019-02-03T06:43:16.236Z,4
2019-02-03T06:44:14.769Z,4
2019-02-03T06:45:13.363Z,4
2019-02-03T06:46:12.038Z,4
2019-02-03T06:47:10.588Z,4
2019-02-03T06:48:09.348Z,0
2019-02-03T06:49:07.895Z,4
2019-02-03T06:50:06.435Z,4
2019-02-03T06:51:04.972Z,4
2019-02-03T06:52:03.530Z,4
2019-02-03T06:53:02.118Z,4
2019-02-03T06:54:00.663Z,8
2019-02-03T06:54:59.355Z,12
2019-02-03T06:55:57.951Z,8
2019-02-03T06:56:56.498Z,12
2019-02-03T06:57:55.061Z,12
2019-02-03T06:58:53.798Z,12
2019-02-03T06:59:52.303Z,16
2019-02-03T07:00:50.833Z,16
2019-02-03T07:01:49.516Z,12
2019-02-03T07:02:48.062Z,16
2019-02-03T07:03:46.624Z,20
2019-02-03T07:04:45.168Z,24
2019-02-03T07:05:43.716Z,24
2019-02-03T07:06:42.261Z,28
2019-02-03T07:07:40.793Z,28
2019-02-03T07:08:39.435Z,28
2019-02-03T07:09:38.091Z,28
2019-02-03T07:10:36.636Z,28
2019-02-03T07:11:35.247Z,24
2019-02-03T07:12:33.895Z,28
2019-02-03T07:13:32.438Z,28
2019-02-03T07:14:31.154Z,36
2019-02-03T07:15:29.788Z,36
2019-02-03T07:16:40.107Z,36
2019-02-03T07:17:27.001Z,40
2019-02-03T07:18:25.734Z,48
2019-02-03T07:19:24.287Z,52
2019-02-03T07:20:23.004Z,68
2019-02-03T07:21:21.792Z,84
2019-02-03T07:22:20.376Z,104
2019-02-03T07:23:18.912Z,112
2019-02-03T07:24:17.478Z,132
2019-02-03T07:25:16.049Z,148
2019-02-03T07:26:14.591Z,168
2019-02-03T07:27:13.184Z,176
2019-02-03T07:28:11.719Z,180
2019-02-03T07:29:10.323Z,188
2019-02-03T07:30:08.927Z,184
2019-02-03T07:31:07.549Z,196
2019-02-03T07:32:06.395Z,204
2019-02-03T07:33:05.078Z,216
2019-02-03T07:34:04.012Z,228
2019-02-03T07:35:02.573Z,244
2019-02-03T07:36:01.236Z,252
2019-02-03T07:36:59.803Z,264
2019-02-03T07:37:58.346Z,276
2019-02-03T07:38:56.912Z,280
2019-02-03T07:39:55.560Z,328
2019-02-03T07:40:54.098Z,348
2019-02-03T07:41:52.644Z,364
2019-02-03T07:42:51.223Z,376
2019-02-03T07:43:49.785Z,384
2019-02-03T07:44:48.399Z,388
2019-02-03T07:45:47.166Z,396
2019-02-03T07:46:45.840Z,416
2019-02-03T07:47:44.387Z,440
2019-02-03T07:48:42.958Z,460
2019-02-03T07:49:41.670Z,480
2019-02-03T07:50:40.220Z,504
2019-02-03T07:51:38.796Z,528
2019-02-03T07:52:37.487Z,552
2019-02-03T07:53:36.211Z,568
2019-02-03T07:54:34.749Z,592
2019-02-03T07:55:33.491Z,612
2019-02-03T07:56:32.161Z,632
2019-02-03T07:57:30.710Z,644
2019-02-03T07:58:29.296Z,664
2019-02-03T07:59:27.929Z,680
2019-02-03T08:00:26.496Z,708
2019-02-03T08:01:25.179Z,732
2019-02-03T08:02:23.971Z,764
2019-02-03T08:03:25.385Z,788
2019-02-03T08:04:21.169Z,804
2019-02-03T08:05:19.922Z,828
2019-02-03T08:06:18.529Z,848
2019-02-03T08:07:17.041Z,872
2019-02-03T08:08:15.623Z,892
2019-02-03T08:09:14.311Z,916
2019-02-03T08:10:23.797Z,928
2019-02-03T08:11:11.394Z,936
2019-02-03T08:12:10.090Z,920
2019-02-03T08:13:08.636Z,908
2019-02-03T08:14:07.344Z,836
2019-02-03T08:15:06.102Z,712
2019-02-03T08:16:04.725Z,660
2019-02-03T08:17:03.265Z,744
2019-02-03T08:18:01.846Z,800
2019-02-03T08:19:00.418Z,860
2019-02-03T08:19:58.974Z,980
2019-02-03T08:20:57.587Z,1016
2019-02-03T08:21:56.247Z,996
2019-02-03T08:22:54.817Z,912
2019-02-03T08:23:53.534Z,848
2019-02-03T08:24:52.163Z,832
2019-02-03T08:25:51.017Z,764
2019-02-03T08:26:49.847Z,780
2019-02-03T08:27:48.393Z,856
2019-02-03T08:28:47.011Z,892
2019-02-03T08:29:45.612Z,868
2019-02-03T08:30:44.255Z,780
2019-02-03T08:31:42.860Z,788
2019-02-03T08:32:41.497Z,948
2019-02-03T08:33:40.119Z,1184
2019-02-03T08:34:38.674Z,1244
2019-02-03T08:35:37.248Z,1248
2019-02-03T08:36:36.046Z,1168
2019-02-03T08:37:34.578Z,1008
2019-02-03T08:38:33.174Z,892
2019-02-03T08:39:31.849Z,852
2019-02-03T08:40:36.876Z,996
2019-02-03T08:41:29.020Z,1220
2019-02-03T08:42:27.555Z,1288
2019-02-03T08:43:26.075Z,1312
2019-02-03T08:44:24.643Z,1316
2019-02-03T08:45:23.226Z,1320
2019-02-03T08:46:21.789Z,1332
2019-02-03T08:47:20.367Z,1348
2019-02-03T08:48:18.949Z,1368
2019-02-03T08:49:17.789Z,1408
2019-02-03T08:50:16.328Z,1440
2019-02-03T08:51:14.925Z,1480
2019-02-03T08:52:13.759Z,1524
2019-02-03T08:53:12.268Z,1560
2019-02-03T08:54:10.892Z,1584
2019-02-03T08:55:09.476Z,1604
2019-02-03T08:56:08.202Z,1636
2019-02-03T08:57:06.724Z,1660
2019-02-03T08:58:05.519Z,1688
2019-02-03T08:59:04.159Z,1724
2019-02-03T09:00:02.710Z,1740
2019-02-03T09:01:03.393Z,1752
2019-02-03T09:02:01.927Z,1760
2019-02-03T09:03:00.467Z,1772
2019-02-03T09:03:59.020Z,1792
2019-02-03T09:04:57.633Z,1808
2019-02-03T09:05:56.303Z,1824
2019-02-03T09:06:57.567Z,1848
2019-02-03T09:07:53.655Z,1868
2019-02-03T09:08:52.213Z,1884
2019-02-03T09:09:50.872Z,1896
2019-02-03T09:10:49.393Z,1944
2019-02-03T09:11:47.989Z,1996
2019-02-03T09:12:46.568Z,2052
2019-02-03T09:13:45.143Z,2116
2019-02-03T09:14:43.697Z,2176
2019-02-03T09:15:42.248Z,2228
2019-02-03T09:16:40.784Z,2276
2019-02-03T09:17:39.364Z,2324
2019-02-03T09:18:38.093Z,2368
2019-02-03T09:19:36.684Z,2404
2019-02-03T09:20:35.285Z,2436
2019-02-03T09:21:33.911Z,2464
2019-02-03T09:22:32.460Z,2500
2019-02-03T09:23:31.037Z,2540
2019-02-03T09:24:29.759Z,2588
2019-02-03T09:28:08.712Z,2680
2019-02-03T09:29:07.387Z,2700
2019-02-03T09:30:06.095Z,2732
2019-02-03T09:31:04.650Z,2768
2019-02-03T09:32:03.285Z,2804
2019-02-03T09:33:01.878Z,2836
2019-02-03T09:34:00.459Z,2856
2019-02-03T09:34:59.005Z,2864
2019-02-03T09:35:57.552Z,2868
2019-02-03T09:36:56.339Z,2916
2019-02-03T09:37:55.002Z,2984
2019-02-03T09:40:17.663Z,3120
2019-02-03T09:41:16.217Z,3208
2019-02-03T09:42:14.780Z,3244
2019-02-03T09:43:13.407Z,3252
2019-02-03T09:44:11.978Z,3272
2019-02-03T09:45:10.516Z,3240
2019-02-03T09:46:09.104Z,3228
2019-02-03T09:47:07.947Z,3092
2019-02-03T09:48:06.523Z,3024
2019-02-03T09:49:05.126Z,2972
2019-02-03T09:50:03.962Z,2848
2019-02-03T09:51:02.496Z,2772
2019-02-03T09:52:01.047Z,2664
2019-02-03T09:52:59.613Z,2420
2019-02-03T09:53:58.166Z,2264
2019-02-03T09:54:56.716Z,2056
2019-02-03T09:55:55.280Z,1992
2019-02-03T09:56:53.832Z,2160
2019-02-03T09:57:52.357Z,2092
2019-02-03T09:58:50.895Z,1996
2019-02-03T09:59:49.787Z,1924
2019-02-03T10:00:48.561Z,1788
2019-02-03T10:01:47.147Z,1872
2019-02-03T10:02:45.705Z,1616
2019-02-03T10:03:44.373Z,1364
2019-02-03T10:04:42.937Z,1200
2019-02-03T10:05:41.873Z,1120
2019-02-03T10:06:40.433Z,1088
2019-02-03T10:07:39.148Z,1060
2019-02-03T10:08:40.515Z,1064
2019-02-03T10:09:36.313Z,1152
2019-02-03T10:10:34.860Z,1304
2019-02-03T10:11:33.481Z,1648
2019-02-03T10:12:32.048Z,2240
2019-02-03T10:13:30.629Z,2692
2019-02-03T10:14:29.453Z,2808
2019-02-03T10:15:28.121Z,2976
2019-02-03T10:16:26.681Z,3068
2019-02-03T10:17:25.335Z,3040
2019-02-03T10:18:23.932Z,2892
2019-02-03T10:19:22.474Z,2688
2019-02-03T10:20:21.008Z,2488
2019-02-03T10:21:19.566Z,2336
2019-02-03T10:22:18.182Z,2168
2019-02-03T10:23:16.782Z,2044
2019-02-03T10:24:15.329Z,2184
2019-02-03T10:25:14.049Z,2316
2019-02-03T10:26:12.607Z,2384
2019-02-03T10:27:11.498Z,2420
2019-02-03T10:28:10.033Z,2376
2019-02-03T10:29:08.583Z,2596
2019-02-03T10:30:07.208Z,2436
2019-02-03T10:31:05.687Z,2448
2019-02-03T10:32:04.229Z,2560
2019-02-03T10:33:02.764Z,2540
2019-02-03T10:34:01.322Z,2616
2019-02-03T10:34:59.859Z,2928
2019-02-03T10:35:58.409Z,3276
2019-02-03T10:36:56.954Z,3448
2019-02-03T10:37:55.971Z,3512
2019-02-03T10:38:54.522Z,3532
2019-02-03T10:39:53.228Z,3472
2019-02-03T10:40:51.822Z,3448
2019-02-03T10:41:50.384Z,3452
2019-02-03T10:42:48.927Z,3504
2019-02-03T10:43:47.463Z,3560
2019-02-03T10:44:46.125Z,3636
2019-02-03T10:45:44.674Z,3660
2019-02-03T10:46:43.449Z,3684
2019-02-03T10:47:41.977Z,3660
2019-02-03T10:48:40.627Z,3648
2019-02-03T10:49:39.177Z,3812
2019-02-03T10:50:37.895Z,3968
2019-02-03T10:51:36.478Z,3988
2019-02-03T10:52:35.132Z,3928
2019-02-03T10:53:33.758Z,3844
2019-02-03T10:54:32.333Z,3752
2019-02-03T10:55:31.150Z,3676
2019-02-03T10:56:29.808Z,3560
2019-02-03T10:57:28.354Z,3520
2019-02-03T10:58:26.941Z,3580
2019-02-03T10:59:25.554Z,3596
2019-02-03T11:00:24.093Z,3568
2019-02-03T11:01:22.642Z,3452
2019-02-03T11:02:21.242Z,3472
2019-02-03T11:03:20.138Z,3280
2019-02-03T11:04:18.692Z,3032
2019-02-03T11:05:17.345Z,2964
2019-02-03T11:06:15.988Z,2828
2019-02-03T11:07:14.545Z,2772
2019-02-03T11:08:13.201Z,2728
2019-02-03T11:09:11.768Z,2784
2019-02-03T11:10:10.291Z,3028
2019-02-03T11:11:08.875Z,3128
2019-02-03T11:12:07.442Z,3108
2019-02-03T11:13:05.992Z,2968
2019-02-03T11:14:04.611Z,2888
2019-02-03T11:15:03.262Z,2952
2019-02-03T11:16:01.914Z,2880
2019-02-03T11:17:00.464Z,2716
2019-02-03T11:17:59.010Z,2624
2019-02-03T11:18:57.855Z,2616
2019-02-03T11:19:56.442Z,2680
2019-02-03T11:20:54.973Z,2680
2019-02-03T11:21:53.508Z,2640
2019-02-03T11:22:52.063Z,2616
2019-02-03T11:23:50.627Z,2612
2019-02-03T11:24:49.245Z,2728
2019-02-03T11:25:48.007Z,2932
2019-02-03T11:26:46.532Z,3248
2019-02-03T11:27:45.207Z,3464
2019-02-03T11:28:43.902Z,3848
2019-02-03T11:29:42.460Z,4108
2019-02-03T11:30:41.135Z,4236
2019-02-03T11:31:39.719Z,4288
2019-02-03T11:32:38.283Z,4300
2019-02-03T11:33:36.821Z,4312
2019-02-03T11:34:35.399Z,4360
2019-02-03T11:35:34.197Z,4396
2019-02-03T11:36:32.726Z,4412
2019-02-03T11:37:31.397Z,4400
2019-02-03T11:38:30.127Z,4436
2019-02-03T11:39:28.671Z,4436
2019-02-03T11:40:27.248Z,4304
2019-02-03T11:41:25.822Z,4100
2019-02-03T11:42:24.536Z,3904
2019-02-03T11:43:23.100Z,3844
2019-02-03T11:44:21.916Z,3752
2019-02-03T11:45:20.464Z,3680
2019-02-03T11:46:19.007Z,3596
2019-02-03T11:47:17.819Z,3460
2019-02-03T11:48:16.482Z,3596
2019-02-03T11:49:15.107Z,3808
2019-02-03T11:50:13.924Z,3868
2019-02-03T11:51:12.496Z,3844
2019-02-03T11:52:11.119Z,3728
2019-02-03T11:53:09.765Z,3640
2019-02-03T11:54:08.386Z,3600
2019-02-03T11:55:06.945Z,3596
2019-02-03T11:56:05.529Z,3404
2019-02-03T11:57:04.084Z,3444
2019-02-03T11:58:02.728Z,3512
2019-02-03T11:59:01.329Z,3380
2019-02-03T12:00:00.021Z,3492
2019-02-03T12:00:58.585Z,3376
2019-02-03T12:01:57.262Z,3148
2019-02-03T12:02:56.038Z,2948
2019-02-03T12:03:54.598Z,2940
2019-02-03T12:04:53.115Z,2912
2019-02-03T12:05:51.808Z,3020
2019-02-03T12:06:50.453Z,3176
2019-02-03T12:07:49.066Z,3480
2019-02-03T12:08:47.836Z,3680
2019-02-03T12:09:46.461Z,3688
2019-02-03T12:10:45.067Z,3516
2019-02-03T12:11:43.727Z,3288
2019-02-03T12:12:42.279Z,3180
2019-02-03T12:13:40.835Z,3148
2019-02-03T12:14:40.181Z,3000
2019-02-03T12:15:37.982Z,2608
2019-02-03T12:16:36.583Z,2540
2019-02-03T12:17:35.285Z,2672
2019-02-03T12:18:33.988Z,2764
2019-02-03T12:19:32.569Z,2776
2019-02-03T12:20:31.091Z,2960
2019-02-03T12:21:30.142Z,2992
2019-02-03T12:22:28.299Z,2704
2019-02-03T12:23:26.878Z,2396
2019-02-03T12:24:25.480Z,2204
2019-02-03T12:25:24.046Z,2436
2019-02-03T12:26:22.590Z,2748
2019-02-03T12:27:21.122Z,2820
2019-02-03T12:28:19.703Z,2616
2019-02-03T12:29:18.444Z,2512
2019-02-03T12:30:17.127Z,2428
2019-02-03T12:31:15.933Z,2224
2019-02-03T12:32:14.471Z,2000
2019-02-03T12:33:13.023Z,1812
2019-02-03T12:35:53.269Z,1576
2019-02-03T12:36:51.981Z,1764
2019-02-03T13:00:01.785Z,2572
2019-02-03T13:01:00.452Z,2392
2019-02-03T13:01:59.073Z,2236
2019-02-03T13:02:57.867Z,2100
2019-02-03T13:03:56.451Z,2060
2019-02-03T13:04:54.971Z,2256
2019-02-03T13:05:53.791Z,2348
2019-02-03T13:06:52.419Z,2368
2019-02-03T13:07:51.055Z,2288
2019-02-03T13:08:49.645Z,2076
2019-02-03T13:09:48.309Z,1828
2019-02-03T13:10:46.869Z,1556
2019-02-03T13:11:45.691Z,1448
2019-02-03T13:15:29.816Z,1756
2019-02-03T13:16:30.429Z,1820
2019-02-03T13:17:27.007Z,1900
2019-02-03T13:18:25.563Z,1980
2019-02-03T13:19:24.335Z,1840
2019-02-03T13:20:22.887Z,1720
2019-02-03T13:21:21.612Z,1752
2019-02-03T13:22:20.400Z,1904
2019-02-03T13:23:18.994Z,1976
2019-02-03T13:24:18.676Z,1864
2019-02-03T13:25:16.163Z,1552
2019-02-03T13:26:14.690Z,1296
2019-02-03T13:27:13.218Z,1048
2019-02-03T13:28:11.777Z,1064
2019-02-03T13:29:10.459Z,1240
2019-02-03T13:30:09.009Z,1300
2019-02-03T13:31:07.784Z,1356
2019-02-03T13:32:10.580Z,1480
2019-02-03T13:33:04.913Z,1560
2019-02-03T13:34:03.693Z,1500
2019-02-03T13:35:02.223Z,1516
2019-02-03T13:36:00.787Z,1456
2019-02-03T13:36:59.322Z,1288
2019-02-03T13:37:57.876Z,1188
2019-02-03T13:38:56.419Z,1160
2019-02-03T13:39:55.041Z,1200
2019-02-03T13:40:53.946Z,1184
2019-02-03T13:41:52.593Z,1196
2019-02-03T13:42:51.211Z,1184
2019-02-03T13:43:49.837Z,1220
2019-02-03T13:44:48.381Z,1284
2019-02-03T13:45:46.935Z,1368
2019-02-03T13:46:45.477Z,1448
2019-02-03T13:47:44.022Z,1532
2019-02-03T13:48:42.549Z,1552
2019-02-03T13:49:41.115Z,1412
2019-02-03T13:52:21.116Z,992
2019-02-03T13:53:19.703Z,1024
2019-02-03T13:54:18.258Z,1104
2019-02-03T13:55:16.827Z,1188
2019-02-03T13:56:15.439Z,1296
2019-02-03T14:09:45.776Z,1264
2019-02-03T14:10:44.481Z,1256
2019-02-03T14:11:42.999Z,1216
2019-02-03T14:12:48.897Z,1208
2019-02-03T14:13:40.271Z,1196
2019-02-03T14:14:38.803Z,1164
2019-02-03T14:15:37.499Z,1088
2019-02-03T14:16:36.090Z,932
2019-02-03T14:17:34.623Z,876
2019-02-03T14:18:33.161Z,964
2019-02-03T14:19:31.700Z,1032
2019-02-03T14:20:30.256Z,1048
2019-02-03T14:21:28.874Z,1056
2019-02-03T14:22:27.435Z,1104
2019-02-03T14:23:26.169Z,1188
2019-02-03T14:24:24.733Z,1244
2019-02-03T14:25:23.423Z,1220
2019-02-03T14:26:22.179Z,1144
2019-02-03T14:27:20.841Z,1120
2019-02-03T14:28:19.377Z,1116
2019-02-03T14:29:18.011Z,1088
2019-02-03T14:30:16.578Z,1048
2019-02-03T14:31:15.126Z,1036